sensor_id;sensor_type;location;lat;lon;timestamp;P1;durP1;ratioP1;P2;durP2;ratioP2
78799;SDS011;68148;55.328;86.106;2024-03-22T00:00:46;0.52;;;0.25;;
78799;SDS011;68148;55.328;86.106;2024-03-22T00:03:12;6.40;;;0.75;;
78799;SDS011;68148;55.328;86.106;2024-03-22T00:05:41;0.10;;;0.10;;
78799;SDS011;68148;55.328;86.106;2024-03-22T00:08:15;0.40;;;0.20;;
78799;SDS011;68148;55.328;86.106;2024-03-22T00:10:41;0.32;;;0.32;;
78799;SDS011;68148;55.328;86.106;2024-03-22T00:13:06;0.60;;;0.60;;
78799;SDS011;68148;55.328;86.106;2024-03-22T00:15:32;1.27;;;0.22;;
78799;SDS011;68148;55.328;86.106;2024-03-22T00:18:00;1.40;;;0.75;;
78799;SDS011;68148;55.328;86.106;2024-03-22T00:20:25;1.52;;;0.80;;
78799;SDS011;68148;55.328;86.106;2024-03-22T00:22:51;2.25;;;1.08;;
78799;SDS011;68148;55.328;86.106;2024-03-22T00:25:17;2.65;;;0.88;;
78799;SDS011;68148;55.328;86.106;2024-03-22T00:27:43;1.25;;;0.43;;
78799;SDS011;68148;55.328;86.106;2024-03-22T00:30:09;0.30;;;0.10;;
78799;SDS011;68148;55.328;86.106;2024-03-22T00:32:35;2.15;;;0.32;;
78799;SDS011;68148;55.328;86.106;2024-03-22T00:35:01;1.08;;;0.75;;
78799;SDS011;68148;55.328;86.106;2024-03-22T00:37:27;0.88;;;0.70;;
78799;SDS011;68148;55.328;86.106;2024-03-22T00:39:53;4.55;;;0.90;;
78799;SDS011;68148;55.328;86.106;2024-03-22T00:42:18;0.85;;;0.60;;
78799;SDS011;68148;55.328;86.106;2024-03-22T00:44:44;4.28;;;1.85;;
78799;SDS011;68148;55.328;86.106;2024-03-22T00:47:10;1.45;;;0.70;;
78799;SDS011;68148;55.328;86.106;2024-03-22T00:49:36;1.52;;;1.15;;
78799;SDS011;68148;55.328;86.106;2024-03-22T00:52:02;8.43;;;1.40;;
78799;SDS011;68148;55.328;86.106;2024-03-22T00:54:28;2.63;;;0.68;;
78799;SDS011;68148;55.328;86.106;2024-03-22T00:56:54;4.20;;;1.25;;
78799;SDS011;68148;55.328;86.106;2024-03-22T00:59:20;1.48;;;0.68;;
78799;SDS011;68148;55.328;86.106;2024-03-22T01:01:46;6.80;;;1.63;;
78799;SDS011;68148;55.328;86.106;2024-03-22T01:04:18;6.38;;;1.73;;
78799;SDS011;68148;55.328;86.106;2024-03-22T01:06:52;3.42;;;1.58;;
78799;SDS011;68148;55.328;86.106;2024-03-22T01:09:32;10.48;;;3.97;;
78799;SDS011;68148;55.328;86.106;2024-03-22T01:11:58;3.20;;;2.08;;
78799;SDS011;68148;55.328;86.106;2024-03-22T01:14:23;8.57;;;3.35;;
78799;SDS011;68148;55.328;86.106;2024-03-22T01:16:49;6.07;;;2.63;;
78799;SDS011;68148;55.328;86.106;2024-03-22T01:19:15;5.88;;;4.00;;
78799;SDS011;68148;55.328;86.106;2024-03-22T01:21:41;7.10;;;3.08;;
78799;SDS011;68148;55.328;86.106;2024-03-22T01:24:07;2.92;;;1.60;;
78799;SDS011;68148;55.328;86.106;2024-03-22T01:26:33;3.80;;;2.00;;
78799;SDS011;68148;55.328;86.106;2024-03-22T01:28:59;1.60;;;1.50;;
78799;SDS011;68148;55.328;86.106;2024-03-22T01:31:25;4.03;;;2.00;;
78799;SDS011;68148;55.328;86.106;2024-03-22T01:33:51;7.78;;;2.50;;
78799;SDS011;68148;55.328;86.106;2024-03-22T01:36:17;4.20;;;1.77;;
78799;SDS011;68148;55.328;86.106;2024-03-22T01:38:43;4.22;;;2.05;;
78799;SDS011;68148;55.328;86.106;2024-03-22T01:41:08;1.15;;;0.68;;
78799;SDS011;68148;55.328;86.106;2024-03-22T01:43:35;2.40;;;1.05;;
78799;SDS011;68148;55.328;86.106;2024-03-22T01:46:01;2.10;;;0.93;;
78799;SDS011;68148;55.328;86.106;2024-03-22T01:48:27;0.45;;;0.32;;
78799;SDS011;68148;55.328;86.106;2024-03-22T01:50:53;0.43;;;0.43;;
78799;SDS011;68148;55.328;86.106;2024-03-22T01:53:19;1.65;;;0.75;;
78799;SDS011;68148;55.328;86.106;2024-03-22T01:55:45;1.55;;;1.13;;
78799;SDS011;68148;55.328;86.106;2024-03-22T01:58:11;4.30;;;2.13;;
78799;SDS011;68148;55.328;86.106;2024-03-22T02:00:37;3.20;;;1.63;;
78799;SDS011;68148;55.328;86.106;2024-03-22T02:03:03;2.33;;;1.52;;
78799;SDS011;68148;55.328;86.106;2024-03-22T02:05:32;1.83;;;0.85;;
78799;SDS011;68148;55.328;86.106;2024-03-22T02:07:58;5.28;;;1.58;;
78799;SDS011;68148;55.328;86.106;2024-03-22T02:10:24;1.95;;;0.90;;
78799;SDS011;68148;55.328;86.106;2024-03-22T02:12:50;1.05;;;0.68;;
78799;SDS011;68148;55.328;86.106;2024-03-22T02:15:17;2.30;;;1.30;;
78799;SDS011;68148;55.328;86.106;2024-03-22T02:17:43;1.27;;;0.85;;
78799;SDS011;68148;55.328;86.106;2024-03-22T02:20:09;1.02;;;0.60;;
78799;SDS011;68148;55.328;86.106;2024-03-22T02:22:35;0.35;;;0.30;;
78799;SDS011;68148;55.328;86.106;2024-03-22T02:25:01;2.88;;;1.08;;
78799;SDS011;68148;55.328;86.106;2024-03-22T02:27:27;2.65;;;1.20;;
78799;SDS011;68148;55.328;86.106;2024-03-22T02:29:53;0.63;;;0.30;;
78799;SDS011;68148;55.328;86.106;2024-03-22T02:32:19;6.10;;;2.65;;
78799;SDS011;68148;55.328;86.106;2024-03-22T02:34:45;1.35;;;0.47;;
78799;SDS011;68148;55.328;86.106;2024-03-22T02:37:11;2.33;;;1.58;;
78799;SDS011;68148;55.328;86.106;2024-03-22T02:39:39;1.00;;;0.47;;
78799;SDS011;68148;55.328;86.106;2024-03-22T02:42:05;0.75;;;0.38;;
78799;SDS011;68148;55.328;86.106;2024-03-22T02:44:31;1.70;;;0.73;;
78799;SDS011;68148;55.328;86.106;2024-03-22T02:46:59;1.27;;;0.85;;
78799;SDS011;68148;55.328;86.106;2024-03-22T02:49:25;0.93;;;0.65;;
78799;SDS011;68148;55.328;86.106;2024-03-22T02:51:51;3.33;;;0.63;;
78799;SDS011;68148;55.328;86.106;2024-03-22T02:54:19;1.23;;;0.60;;
78799;SDS011;68148;55.328;86.106;2024-03-22T02:56:45;7.43;;;0.57;;
78799;SDS011;68148;55.328;86.106;2024-03-22T02:59:11;2.00;;;1.00;;
78799;SDS011;68148;55.328;86.106;2024-03-22T03:01:37;3.92;;;0.50;;
78799;SDS011;68148;55.328;86.106;2024-03-22T03:04:04;8.60;;;0.90;;
78799;SDS011;68148;55.328;86.106;2024-03-22T03:06:35;0.63;;;0.35;;
78799;SDS011;68148;55.328;86.106;2024-03-22T03:09:01;2.28;;;1.00;;
78799;SDS011;68148;55.328;86.106;2024-03-22T03:11:41;1.48;;;0.55;;
78799;SDS011;68148;55.328;86.106;2024-03-22T03:14:07;3.58;;;1.40;;
78799;SDS011;68148;55.328;86.106;2024-03-22T03:16:32;2.47;;;0.98;;
78799;SDS011;68148;55.328;86.106;2024-03-22T03:18:58;2.88;;;1.10;;
78799;SDS011;68148;55.328;86.106;2024-03-22T03:21:35;0.68;;;0.50;;
78799;SDS011;68148;55.328;86.106;2024-03-22T03:24:00;2.47;;;0.80;;
78799;SDS011;68148;55.328;86.106;2024-03-22T03:26:26;1.10;;;0.82;;
78799;SDS011;68148;55.328;86.106;2024-03-22T03:28:52;0.10;;;0.00;;
78799;SDS011;68148;55.328;86.106;2024-03-22T03:31:18;1.55;;;0.75;;
78799;SDS011;68148;55.328;86.106;2024-03-22T03:33:44;0.28;;;0.13;;
78799;SDS011;68148;55.328;86.106;2024-03-22T03:36:21;0.10;;;0.10;;
78799;SDS011;68148;55.328;86.106;2024-03-22T03:38:47;3.30;;;1.85;;
78799;SDS011;68148;55.328;86.106;2024-03-22T03:41:14;7.30;;;1.10;;
78799;SDS011;68148;55.328;86.106;2024-03-22T03:43:40;7.40;;;0.95;;
78799;SDS011;68148;55.328;86.106;2024-03-22T03:46:06;1.88;;;0.98;;
78799;SDS011;68148;55.328;86.106;2024-03-22T03:48:32;5.53;;;1.60;;
78799;SDS011;68148;55.328;86.106;2024-03-22T03:50:58;3.92;;;1.38;;
78799;SDS011;68148;55.328;86.106;2024-03-22T03:53:24;3.65;;;1.05;;
78799;SDS011;68148;55.328;86.106;2024-03-22T03:55:50;5.32;;;1.80;;
78799;SDS011;68148;55.328;86.106;2024-03-22T03:58:18;1.98;;;1.38;;
78799;SDS011;68148;55.328;86.106;2024-03-22T04:00:44;3.53;;;1.50;;
78799;SDS011;68148;55.328;86.106;2024-03-22T04:03:21;1.17;;;1.08;;
78799;SDS011;68148;55.328;86.106;2024-03-22T04:05:55;4.00;;;2.08;;
78799;SDS011;68148;55.328;86.106;2024-03-22T04:08:22;1.92;;;1.08;;
78799;SDS011;68148;55.328;86.106;2024-03-22T04:10:54;5.35;;;2.30;;
78799;SDS011;68148;55.328;86.106;2024-03-22T04:13:21;5.47;;;2.28;;
78799;SDS011;68148;55.328;86.106;2024-03-22T04:15:47;3.15;;;1.00;;
78799;SDS011;68148;55.328;86.106;2024-03-22T04:18:12;5.22;;;1.58;;
78799;SDS011;68148;55.328;86.106;2024-03-22T04:20:38;1.92;;;1.08;;
78799;SDS011;68148;55.328;86.106;2024-03-22T04:23:04;6.55;;;1.42;;
78799;SDS011;68148;55.328;86.106;2024-03-22T04:25:30;2.35;;;1.00;;
78799;SDS011;68148;55.328;86.106;2024-03-22T04:27:56;3.05;;;1.08;;
78799;SDS011;68148;55.328;86.106;2024-03-22T04:30:22;1.85;;;0.52;;
78799;SDS011;68148;55.328;86.106;2024-03-22T04:32:48;5.45;;;1.48;;
78799;SDS011;68148;55.328;86.106;2024-03-22T04:35:14;3.00;;;1.05;;
78799;SDS011;68148;55.328;86.106;2024-03-22T04:37:40;4.53;;;1.25;;
78799;SDS011;68148;55.328;86.106;2024-03-22T04:40:06;0.95;;;0.63;;
78799;SDS011;68148;55.328;86.106;2024-03-22T04:42:32;4.68;;;1.52;;
78799;SDS011;68148;55.328;86.106;2024-03-22T04:44:58;6.05;;;2.42;;
78799;SDS011;68148;55.328;86.106;2024-03-22T04:47:24;2.72;;;1.85;;
78799;SDS011;68148;55.328;86.106;2024-03-22T04:49:51;2.67;;;1.23;;
78799;SDS011;68148;55.328;86.106;2024-03-22T04:52:17;2.88;;;1.10;;
78799;SDS011;68148;55.328;86.106;2024-03-22T04:54:42;3.75;;;1.45;;
78799;SDS011;68148;55.328;86.106;2024-03-22T04:57:11;3.85;;;2.33;;
78799;SDS011;68148;55.328;86.106;2024-03-22T04:59:37;4.07;;;2.05;;
78799;SDS011;68148;55.328;86.106;2024-03-22T05:02:03;6.32;;;2.35;;
78799;SDS011;68148;55.328;86.106;2024-03-22T05:04:28;3.63;;;0.98;;
78799;SDS011;68148;55.328;86.106;2024-03-22T05:06:55;5.40;;;1.23;;
78799;SDS011;68148;55.328;86.106;2024-03-22T05:09:23;5.47;;;1.90;;
78799;SDS011;68148;55.328;86.106;2024-03-22T05:11:49;4.68;;;2.08;;
78799;SDS011;68148;55.328;86.106;2024-03-22T05:14:18;5.63;;;2.88;;
78799;SDS011;68148;55.328;86.106;2024-03-22T05:16:44;5.25;;;2.20;;
78799;SDS011;68148;55.328;86.106;2024-03-22T05:19:14;4.72;;;2.08;;
78799;SDS011;68148;55.328;86.106;2024-03-22T05:21:40;6.53;;;2.10;;
78799;SDS011;68148;55.328;86.106;2024-03-22T05:24:05;7.47;;;2.47;;
78799;SDS011;68148;55.328;86.106;2024-03-22T05:26:31;5.85;;;3.08;;
78799;SDS011;68148;55.328;86.106;2024-03-22T05:29:00;7.75;;;2.20;;
78799;SDS011;68148;55.328;86.106;2024-03-22T05:31:26;6.57;;;2.40;;
78799;SDS011;68148;55.328;86.106;2024-03-22T05:33:52;3.10;;;1.17;;
78799;SDS011;68148;55.328;86.106;2024-03-22T05:36:18;7.40;;;2.65;;
78799;SDS011;68148;55.328;86.106;2024-03-22T05:38:43;8.73;;;2.85;;
78799;SDS011;68148;55.328;86.106;2024-03-22T05:41:10;7.47;;;2.40;;
78799;SDS011;68148;55.328;86.106;2024-03-22T05:43:39;7.53;;;3.33;;
78799;SDS011;68148;55.328;86.106;2024-03-22T05:46:14;6.93;;;3.47;;
78799;SDS011;68148;55.328;86.106;2024-03-22T05:48:40;10.65;;;3.03;;
78799;SDS011;68148;55.328;86.106;2024-03-22T05:51:06;10.68;;;4.40;;
78799;SDS011;68148;55.328;86.106;2024-03-22T05:53:31;6.05;;;2.63;;
78799;SDS011;68148;55.328;86.106;2024-03-22T05:55:57;9.15;;;3.80;;
78799;SDS011;68148;55.328;86.106;2024-03-22T05:58:24;11.38;;;4.00;;
78799;SDS011;68148;55.328;86.106;2024-03-22T06:00:53;13.07;;;4.30;;
78799;SDS011;68148;55.328;86.106;2024-03-22T06:03:18;12.82;;;5.00;;
78799;SDS011;68148;55.328;86.106;2024-03-22T06:05:45;8.65;;;4.32;;
78799;SDS011;68148;55.328;86.106;2024-03-22T06:08:15;17.20;;;8.25;;
78799;SDS011;68148;55.328;86.106;2024-03-22T06:10:41;13.98;;;5.72;;
78799;SDS011;68148;55.328;86.106;2024-03-22T06:13:07;19.00;;;8.95;;
78799;SDS011;68148;55.328;86.106;2024-03-22T06:15:33;28.52;;;9.23;;
78799;SDS011;68148;55.328;86.106;2024-03-22T06:17:59;20.52;;;8.32;;
78799;SDS011;68148;55.328;86.106;2024-03-22T06:20:25;15.98;;;6.05;;
78799;SDS011;68148;55.328;86.106;2024-03-22T06:22:50;17.73;;;7.05;;
78799;SDS011;68148;55.328;86.106;2024-03-22T06:25:16;13.13;;;4.90;;
78799;SDS011;68148;55.328;86.106;2024-03-22T06:27:42;15.68;;;8.00;;
78799;SDS011;68148;55.328;86.106;2024-03-22T06:30:08;36.92;;;14.45;;
78799;SDS011;68148;55.328;86.106;2024-03-22T06:32:37;16.65;;;8.50;;
78799;SDS011;68148;55.328;86.106;2024-03-22T06:35:03;29.42;;;9.45;;
78799;SDS011;68148;55.328;86.106;2024-03-22T06:37:30;19.40;;;6.97;;
78799;SDS011;68148;55.328;86.106;2024-03-22T06:39:55;18.58;;;6.47;;
78799;SDS011;68148;55.328;86.106;2024-03-22T06:42:22;10.88;;;4.78;;
78799;SDS011;68148;55.328;86.106;2024-03-22T06:44:48;10.00;;;4.30;;
78799;SDS011;68148;55.328;86.106;2024-03-22T06:47:14;13.70;;;3.60;;
78799;SDS011;68148;55.328;86.106;2024-03-22T06:49:44;5.32;;;2.65;;
78799;SDS011;68148;55.328;86.106;2024-03-22T06:52:09;16.05;;;5.97;;
78799;SDS011;68148;55.328;86.106;2024-03-22T06:54:35;14.43;;;4.00;;
78799;SDS011;68148;55.328;86.106;2024-03-22T06:57:01;4.57;;;1.30;;
78799;SDS011;68148;55.328;86.106;2024-03-22T06:59:27;5.40;;;2.33;;
78799;SDS011;68148;55.328;86.106;2024-03-22T07:01:53;11.43;;;3.22;;
78799;SDS011;68148;55.328;86.106;2024-03-22T07:04:19;10.18;;;4.78;;
78799;SDS011;68148;55.328;86.106;2024-03-22T07:06:45;10.27;;;4.05;;
78799;SDS011;68148;55.328;86.106;2024-03-22T07:09:11;9.18;;;3.85;;
78799;SDS011;68148;55.328;86.106;2024-03-22T07:11:37;13.68;;;5.10;;
78799;SDS011;68148;55.328;86.106;2024-03-22T07:14:02;19.02;;;5.88;;
78799;SDS011;68148;55.328;86.106;2024-03-22T07:16:44;6.80;;;2.42;;
78799;SDS011;68148;55.328;86.106;2024-03-22T07:19:11;15.65;;;4.45;;
78799;SDS011;68148;55.328;86.106;2024-03-22T07:21:37;14.70;;;6.18;;
78799;SDS011;68148;55.328;86.106;2024-03-22T07:24:03;19.50;;;6.65;;
78799;SDS011;68148;55.328;86.106;2024-03-22T07:26:29;27.98;;;10.70;;
78799;SDS011;68148;55.328;86.106;2024-03-22T07:28:55;27.10;;;8.32;;
78799;SDS011;68148;55.328;86.106;2024-03-22T07:31:21;34.47;;;12.85;;
78799;SDS011;68148;55.328;86.106;2024-03-22T07:33:46;28.70;;;8.52;;
78799;SDS011;68148;55.328;86.106;2024-03-22T07:36:15;30.17;;;7.40;;
78799;SDS011;68148;55.328;86.106;2024-03-22T07:38:41;31.65;;;7.10;;
78799;SDS011;68148;55.328;86.106;2024-03-22T07:41:07;39.95;;;7.55;;
78799;SDS011;68148;55.328;86.106;2024-03-22T07:43:33;33.75;;;6.68;;
78799;SDS011;68148;55.328;86.106;2024-03-22T07:45:58;21.50;;;4.78;;
78799;SDS011;68148;55.328;86.106;2024-03-22T07:48:24;23.92;;;5.53;;
78799;SDS011;68148;55.328;86.106;2024-03-22T07:50:59;19.63;;;6.30;;
78799;SDS011;68148;55.328;86.106;2024-03-22T07:53:25;21.27;;;7.05;;
78799;SDS011;68148;55.328;86.106;2024-03-22T07:55:52;22.52;;;6.45;;
78799;SDS011;68148;55.328;86.106;2024-03-22T07:58:26;14.80;;;5.15;;
78799;SDS011;68148;55.328;86.106;2024-03-22T08:00:51;15.60;;;5.57;;
78799;SDS011;68148;55.328;86.106;2024-03-22T08:03:17;19.92;;;5.13;;
78799;SDS011;68148;55.328;86.106;2024-03-22T08:05:45;22.00;;;6.07;;
78799;SDS011;68148;55.328;86.106;2024-03-22T08:08:11;23.30;;;6.57;;
78799;SDS011;68148;55.328;86.106;2024-03-22T08:10:37;21.48;;;7.32;;
78799;SDS011;68148;55.328;86.106;2024-03-22T08:13:03;17.25;;;6.55;;
78799;SDS011;68148;55.328;86.106;2024-03-22T08:15:29;19.40;;;7.32;;
78799;SDS011;68148;55.328;86.106;2024-03-22T08:17:55;20.63;;;7.75;;
78799;SDS011;68148;55.328;86.106;2024-03-22T08:20:22;21.15;;;7.97;;
78799;SDS011;68148;55.328;86.106;2024-03-22T08:22:47;23.40;;;6.95;;
78799;SDS011;68148;55.328;86.106;2024-03-22T08:25:16;21.80;;;7.35;;
78799;SDS011;68148;55.328;86.106;2024-03-22T08:27:42;23.15;;;7.60;;
78799;SDS011;68148;55.328;86.106;2024-03-22T08:30:10;25.50;;;7.35;;
78799;SDS011;68148;55.328;86.106;2024-03-22T08:32:36;25.17;;;7.47;;
78799;SDS011;68148;55.328;86.106;2024-03-22T08:35:03;20.63;;;7.40;;
78799;SDS011;68148;55.328;86.106;2024-03-22T08:37:29;13.90;;;5.75;;
78799;SDS011;68148;55.328;86.106;2024-03-22T08:39:55;14.90;;;5.47;;
78799;SDS011;68148;55.328;86.106;2024-03-22T08:42:21;11.68;;;5.40;;
78799;SDS011;68148;55.328;86.106;2024-03-22T08:44:47;15.95;;;6.00;;
78799;SDS011;68148;55.328;86.106;2024-03-22T08:47:12;11.32;;;4.63;;
78799;SDS011;68148;55.328;86.106;2024-03-22T08:49:39;12.80;;;4.88;;
78799;SDS011;68148;55.328;86.106;2024-03-22T08:52:07;11.98;;;4.95;;
78799;SDS011;68148;55.328;86.106;2024-03-22T08:54:33;10.48;;;4.75;;
78799;SDS011;68148;55.328;86.106;2024-03-22T08:57:01;17.25;;;8.05;;
78799;SDS011;68148;55.328;86.106;2024-03-22T08:59:27;20.38;;;7.82;;
78799;SDS011;68148;55.328;86.106;2024-03-22T09:01:53;24.20;;;8.05;;
78799;SDS011;68148;55.328;86.106;2024-03-22T09:04:19;22.95;;;8.15;;
78799;SDS011;68148;55.328;86.106;2024-03-22T09:06:45;18.55;;;7.88;;
78799;SDS011;68148;55.328;86.106;2024-03-22T09:09:11;12.55;;;6.28;;
78799;SDS011;68148;55.328;86.106;2024-03-22T09:11:36;17.80;;;6.63;;
78799;SDS011;68148;55.328;86.106;2024-03-22T09:14:02;19.65;;;6.88;;
78799;SDS011;68148;55.328;86.106;2024-03-22T09:16:28;16.00;;;7.75;;
78799;SDS011;68148;55.328;86.106;2024-03-22T09:18:54;12.98;;;5.38;;
78799;SDS011;68148;55.328;86.106;2024-03-22T09:21:20;20.05;;;6.95;;
78799;SDS011;68148;55.328;86.106;2024-03-22T09:23:45;13.20;;;5.45;;
78799;SDS011;68148;55.328;86.106;2024-03-22T09:26:11;13.60;;;5.72;;
78799;SDS011;68148;55.328;86.106;2024-03-22T09:28:37;20.27;;;5.63;;
78799;SDS011;68148;55.328;86.106;2024-03-22T09:31:06;15.02;;;4.95;;
78799;SDS011;68148;55.328;86.106;2024-03-22T09:33:33;14.18;;;5.50;;
78799;SDS011;68148;55.328;86.106;2024-03-22T09:36:02;12.20;;;5.00;;
78799;SDS011;68148;55.328;86.106;2024-03-22T09:38:31;9.93;;;4.72;;
78799;SDS011;68148;55.328;86.106;2024-03-22T09:40:57;9.25;;;4.78;;
78799;SDS011;68148;55.328;86.106;2024-03-22T09:43:23;11.35;;;4.43;;
78799;SDS011;68148;55.328;86.106;2024-03-22T09:45:52;6.75;;;2.42;;
78799;SDS011;68148;55.328;86.106;2024-03-22T09:48:26;8.10;;;3.25;;
78799;SDS011;68148;55.328;86.106;2024-03-22T09:50:55;5.63;;;2.15;;
78799;SDS011;68148;55.328;86.106;2024-03-22T09:53:22;2.75;;;1.65;;
78799;SDS011;68148;55.328;86.106;2024-03-22T09:55:52;6.78;;;2.50;;
78799;SDS011;68148;55.328;86.106;2024-03-22T09:58:30;2.22;;;1.33;;
78799;SDS011;68148;55.328;86.106;2024-03-22T10:00:56;6.47;;;2.53;;
78799;SDS011;68148;55.328;86.106;2024-03-22T10:03:25;4.10;;;1.95;;
78799;SDS011;68148;55.328;86.106;2024-03-22T10:05:56;8.63;;;3.22;;
78799;SDS011;68148;55.328;86.106;2024-03-22T10:08:24;7.38;;;2.63;;
78799;SDS011;68148;55.328;86.106;2024-03-22T10:10:50;7.38;;;2.47;;
78799;SDS011;68148;55.328;86.106;2024-03-22T10:13:16;4.43;;;2.28;;
78799;SDS011;68148;55.328;86.106;2024-03-22T10:15:42;8.98;;;3.10;;
78799;SDS011;68148;55.328;86.106;2024-03-22T10:18:10;5.10;;;2.03;;
78799;SDS011;68148;55.328;86.106;2024-03-22T10:20:37;5.72;;;2.58;;
78799;SDS011;68148;55.328;86.106;2024-03-22T10:23:03;6.05;;;1.80;;
78799;SDS011;68148;55.328;86.106;2024-03-22T10:25:29;4.13;;;2.28;;
78799;SDS011;68148;55.328;86.106;2024-03-22T10:27:56;8.85;;;3.83;;
78799;SDS011;68148;55.328;86.106;2024-03-22T10:30:24;8.90;;;3.13;;
78799;SDS011;68148;55.328;86.106;2024-03-22T10:32:50;7.65;;;2.53;;
78799;SDS011;68148;55.328;86.106;2024-03-22T10:35:16;13.48;;;3.58;;
78799;SDS011;68148;55.328;86.106;2024-03-22T10:37:42;5.40;;;3.20;;
78799;SDS011;68148;55.328;86.106;2024-03-22T10:40:09;7.72;;;2.53;;
78799;SDS011;68148;55.328;86.106;2024-03-22T10:42:36;6.43;;;2.53;;
78799;SDS011;68148;55.328;86.106;2024-03-22T10:45:03;6.20;;;2.47;;
78799;SDS011;68148;55.328;86.106;2024-03-22T10:47:30;5.78;;;2.25;;
78799;SDS011;68148;55.328;86.106;2024-03-22T10:50:09;2.30;;;1.25;;
78799;SDS011;68148;55.328;86.106;2024-03-22T10:52:40;9.90;;;2.20;;
78799;SDS011;68148;55.328;86.106;2024-03-22T10:55:18;3.70;;;1.88;;
78799;SDS011;68148;55.328;86.106;2024-03-22T10:57:59;4.47;;;1.73;;
78799;SDS011;68148;55.328;86.106;2024-03-22T11:00:32;11.60;;;3.25;;
78799;SDS011;68148;55.328;86.106;2024-03-22T11:05:28;2.78;;;1.38;;
78799;SDS011;68148;55.328;86.106;2024-03-22T11:08:03;3.38;;;1.15;;
78799;SDS011;68148;55.328;86.106;2024-03-22T11:10:30;4.90;;;1.88;;
78799;SDS011;68148;55.328;86.106;2024-03-22T11:13:02;6.80;;;2.08;;
78799;SDS011;68148;55.328;86.106;2024-03-22T11:15:29;7.25;;;2.35;;
78799;SDS011;68148;55.328;86.106;2024-03-22T11:17:55;4.30;;;1.80;;
78799;SDS011;68148;55.328;86.106;2024-03-22T11:20:23;3.17;;;1.67;;
78799;SDS011;68148;55.328;86.106;2024-03-22T11:22:51;8.18;;;3.20;;
78799;SDS011;68148;55.328;86.106;2024-03-22T11:25:17;10.77;;;2.55;;
78799;SDS011;68148;55.328;86.106;2024-03-22T11:27:43;11.00;;;3.30;;
78799;SDS011;68148;55.328;86.106;2024-03-22T11:30:09;9.63;;;3.63;;
78799;SDS011;68148;55.328;86.106;2024-03-22T11:32:35;5.40;;;3.17;;
78799;SDS011;68148;55.328;86.106;2024-03-22T11:35:01;9.25;;;3.50;;
78799;SDS011;68148;55.328;86.106;2024-03-22T11:37:27;7.05;;;2.58;;
78799;SDS011;68148;55.328;86.106;2024-03-22T11:39:53;3.45;;;1.88;;
78799;SDS011;68148;55.328;86.106;2024-03-22T11:42:19;5.50;;;2.55;;
78799;SDS011;68148;55.328;86.106;2024-03-22T11:44:45;7.40;;;3.22;;
78799;SDS011;68148;55.328;86.106;2024-03-22T11:47:11;10.55;;;2.90;;
78799;SDS011;68148;55.328;86.106;2024-03-22T11:49:36;10.43;;;4.13;;
78799;SDS011;68148;55.328;86.106;2024-03-22T11:52:02;10.38;;;3.83;;
78799;SDS011;68148;55.328;86.106;2024-03-22T11:54:28;13.40;;;5.95;;
78799;SDS011;68148;55.328;86.106;2024-03-22T11:56:57;18.27;;;4.57;;
78799;SDS011;68148;55.328;86.106;2024-03-22T11:59:23;9.68;;;4.72;;
78799;SDS011;68148;55.328;86.106;2024-03-22T12:01:48;13.25;;;4.65;;
78799;SDS011;68148;55.328;86.106;2024-03-22T12:04:16;16.10;;;4.95;;
78799;SDS011;68148;55.328;86.106;2024-03-22T12:06:42;12.77;;;5.45;;
78799;SDS011;68148;55.328;86.106;2024-03-22T12:09:10;20.08;;;6.43;;
78799;SDS011;68148;55.328;86.106;2024-03-22T12:11:37;15.23;;;6.10;;
78799;SDS011;68148;55.328;86.106;2024-03-22T12:14:03;18.13;;;6.07;;
78799;SDS011;68148;55.328;86.106;2024-03-22T12:16:29;19.27;;;7.43;;
78799;SDS011;68148;55.328;86.106;2024-03-22T12:18:55;18.25;;;7.05;;
78799;SDS011;68148;55.328;86.106;2024-03-22T12:21:20;24.70;;;8.65;;
78799;SDS011;68148;55.328;86.106;2024-03-22T12:23:53;24.90;;;7.15;;
78799;SDS011;68148;55.328;86.106;2024-03-22T12:26:19;13.13;;;6.13;;
78799;SDS011;68148;55.328;86.106;2024-03-22T12:28:45;27.42;;;9.80;;
78799;SDS011;68148;55.328;86.106;2024-03-22T12:31:21;17.58;;;6.07;;
78799;SDS011;68148;55.328;86.106;2024-03-22T12:33:46;16.65;;;6.07;;
78799;SDS011;68148;55.328;86.106;2024-03-22T12:36:12;15.40;;;6.18;;
78799;SDS011;68148;55.328;86.106;2024-03-22T12:38:40;16.73;;;5.60;;
78799;SDS011;68148;55.328;86.106;2024-03-22T12:41:06;12.90;;;5.55;;
78799;SDS011;68148;55.328;86.106;2024-03-22T12:43:35;11.57;;;4.70;;
78799;SDS011;68148;55.328;86.106;2024-03-22T12:46:01;10.30;;;3.85;;
78799;SDS011;68148;55.328;86.106;2024-03-22T12:48:28;5.60;;;2.72;;
78799;SDS011;68148;55.328;86.106;2024-03-22T12:50:54;7.57;;;2.50;;
78799;SDS011;68148;55.328;86.106;2024-03-22T12:53:20;9.68;;;4.18;;
78799;SDS011;68148;55.328;86.106;2024-03-22T12:55:46;6.55;;;2.75;;
78799;SDS011;68148;55.328;86.106;2024-03-22T12:58:12;12.23;;;4.80;;
78799;SDS011;68148;55.328;86.106;2024-03-22T13:00:38;12.52;;;4.55;;
78799;SDS011;68148;55.328;86.106;2024-03-22T13:03:03;12.77;;;3.83;;
78799;SDS011;68148;55.328;86.106;2024-03-22T13:05:30;14.98;;;4.35;;
78799;SDS011;68148;55.328;86.106;2024-03-22T13:07:56;12.45;;;3.58;;
78799;SDS011;68148;55.328;86.106;2024-03-22T13:10:22;9.88;;;3.53;;
78799;SDS011;68148;55.328;86.106;2024-03-22T13:12:48;10.48;;;3.45;;
78799;SDS011;68148;55.328;86.106;2024-03-22T13:15:14;10.40;;;3.92;;
78799;SDS011;68148;55.328;86.106;2024-03-22T13:17:41;8.00;;;3.20;;
78799;SDS011;68148;55.328;86.106;2024-03-22T13:22:38;4.35;;;2.72;;
78799;SDS011;68148;55.328;86.106;2024-03-22T13:25:05;9.25;;;2.58;;
78799;SDS011;68148;55.328;86.106;2024-03-22T13:27:34;7.57;;;4.03;;
78799;SDS011;68148;55.328;86.106;2024-03-22T13:30:02;9.02;;;3.40;;
78799;SDS011;68148;55.328;86.106;2024-03-22T13:32:28;12.52;;;4.35;;
78799;SDS011;68148;55.328;86.106;2024-03-22T13:34:54;15.70;;;4.68;;
78799;SDS011;68148;55.328;86.106;2024-03-22T13:37:20;13.55;;;5.75;;
78799;SDS011;68148;55.328;86.106;2024-03-22T13:39:49;17.38;;;6.70;;
78799;SDS011;68148;55.328;86.106;2024-03-22T13:42:15;12.35;;;4.53;;
78799;SDS011;68148;55.328;86.106;2024-03-22T13:44:41;11.68;;;4.10;;
78799;SDS011;68148;55.328;86.106;2024-03-22T13:47:08;13.15;;;4.88;;
78799;SDS011;68148;55.328;86.106;2024-03-22T13:49:34;19.38;;;6.30;;
78799;SDS011;68148;55.328;86.106;2024-03-22T13:52:03;12.15;;;4.10;;
78799;SDS011;68148;55.328;86.106;2024-03-22T13:54:29;11.63;;;4.88;;
78799;SDS011;68148;55.328;86.106;2024-03-22T13:56:55;18.60;;;6.18;;
78799;SDS011;68148;55.328;86.106;2024-03-22T13:59:21;13.00;;;4.78;;
78799;SDS011;68148;55.328;86.106;2024-03-22T14:01:47;16.92;;;5.70;;
78799;SDS011;68148;55.328;86.106;2024-03-22T14:04:13;15.88;;;5.32;;
78799;SDS011;68148;55.328;86.106;2024-03-22T14:06:38;29.38;;;6.45;;
78799;SDS011;68148;55.328;86.106;2024-03-22T14:09:04;16.02;;;4.78;;
78799;SDS011;68148;55.328;86.106;2024-03-22T14:11:31;13.32;;;3.70;;
78799;SDS011;68148;55.328;86.106;2024-03-22T14:13:57;9.52;;;3.75;;
78799;SDS011;68148;55.328;86.106;2024-03-22T14:16:23;9.30;;;4.18;;
78799;SDS011;68148;55.328;86.106;2024-03-22T14:18:50;7.28;;;2.60;;
78799;SDS011;68148;55.328;86.106;2024-03-22T14:21:17;10.93;;;4.50;;
78799;SDS011;68148;55.328;86.106;2024-03-22T14:23:43;8.93;;;3.15;;
78799;SDS011;68148;55.328;86.106;2024-03-22T14:26:09;8.35;;;3.38;;
78799;SDS011;68148;55.328;86.106;2024-03-22T14:28:35;9.68;;;3.83;;
78799;SDS011;68148;55.328;86.106;2024-03-22T14:31:01;10.88;;;4.38;;